This is the latest recevied weather packets stored in our database for station/object N9MXT-13. If no packets are shown the sender has not sent any weather packets the latest 10 day(s).
| Time | Temp. | Humidity | Pressure | Rain* | Wind** | Luminosity | Snow |
|---|---|---|---|---|---|---|---|
| 1777730401 | 6.11° C | 76% | 1020 hPa | 0 mm | - | - | - |
| 1777729499 | 5° C | 81% | 1020.1 hPa | 0 mm | - | - | - |
| 1777728899 | 4.44° C | 82% | 1020.1 hPa | 0 mm | - | - | - |
| 1777727699 | 3.33° C | 85% | 1020 hPa | 0 mm | - | - | - |
| 1777725600 | 1.67° C | 92% | 1020 hPa | 0 mm | - | - | - |
| 1777723799 | 0° C | 93% | 1019.8 hPa | 0 mm | - | - | - |
| 1777723204 | 0° C | 93% | 1019.7 hPa | 0 mm | - | - | - |
| 1777720499 | -1.11° C | 93% | 1019.4 hPa | 0 mm | - | - | - |
| 1777718999 | -1.67° C | 93% | 1019.3 hPa | 0 mm | - | - | - |
| 1777718099 | -1.67° C | 92% | 1019.3 hPa | 0 mm | - | - | - |
| 1777716599 | -1.11° C | 92% | 1019.3 hPa | 0 mm | - | - | - |
| 1777714800 | -1.11° C | 92% | 1019.3 hPa | 0 mm | - | - | - |
| 1777714199 | -1.11° C | 92% | 1019.3 hPa | 0 mm | - | - | - |
| 1777710599 | -1.11° C | 92% | 1019.1 hPa | 0 mm | - | - | - |
| 1777709099 | -0.56° C | 91% | 1019 hPa | 0 mm | - | - | - |
| 1777708804 | -0.56° C | 91% | 1019 hPa | 0 mm | - | - | - |
| 1777707900 | -0.56° C | 92% | 1019.1 hPa | 0 mm | - | - | - |
| 1777705203 | -0.56° C | 91% | 1019.4 hPa | 0 mm | - | - | - |
| 1777699198 | -0.56° C | 90% | 1019.7 hPa | 0 mm | - | - | - |
| 1777698299 | -0.56° C | 90% | 1019.7 hPa | 0 mm | - | - | - |
| 1777695601 | 0° C | 90% | 1019.6 hPa | 0 mm | - | - | - |
| 1777693800 | 0.56° C | 90% | 1019.6 hPa | 0 mm | - | - | - |
| 1777693501 | 0.56° C | 90% | 1019.5 hPa | 0 mm | - | - | - |
| 1777692301 | 1.11° C | 89% | 1019.5 hPa | 0 mm | - | - | - |
| 1777692000 | 1.11° C | 89% | 1019.5 hPa | 0 mm | - | - | - |
* Rain latest hour (hover to see other rain measurements)
** Current wind speed in m/s (hover to see current wind gust speed)